sensor_id;sensor_type;location;lat;lon;timestamp;pressure;altitude;pressure_sealevel;temperature
32039;BMP280;18549;42.286;22.688;2022-08-21T00:00:19;95096.72;;;24.75
32039;BMP280;18549;42.286;22.688;2022-08-21T00:02:52;95093.03;;;24.77
32039;BMP280;18549;42.286;22.688;2022-08-21T00:05:25;95093.97;;;24.76
32039;BMP280;18549;42.286;22.688;2022-08-21T00:07:52;95090.88;;;24.74
32039;BMP280;18549;42.286;22.688;2022-08-21T00:10:21;95089.72;;;24.77
32039;BMP280;18549;42.286;22.688;2022-08-21T00:12:54;95099.44;;;24.73
32039;BMP280;18549;42.286;22.688;2022-08-21T00:15:40;95101.81;;;24.75
32039;BMP280;18549;42.286;22.688;2022-08-21T00:18:28;95103.94;;;24.71
32039;BMP280;18549;42.286;22.688;2022-08-21T00:21:01;95100.81;;;24.69
32039;BMP280;18549;42.286;22.688;2022-08-21T00:23:28;95101.19;;;24.66
32039;BMP280;18549;42.286;22.688;2022-08-21T00:25:57;95110.38;;;24.67
32039;BMP280;18549;42.286;22.688;2022-08-21T00:28:25;95106.44;;;24.65
32039;BMP280;18549;42.286;22.688;2022-08-21T00:30:52;95109.19;;;24.63
32039;BMP280;18549;42.286;22.688;2022-08-21T00:33:20;95097.47;;;24.62
32039;BMP280;18549;42.286;22.688;2022-08-21T00:35:48;95102.75;;;24.61
32039;BMP280;18549;42.286;22.688;2022-08-21T00:38:17;95104.53;;;24.60
32039;BMP280;18549;42.286;22.688;2022-08-21T00:40:50;95105.88;;;24.56
32039;BMP280;18549;42.286;22.688;2022-08-21T00:43:22;95102.75;;;24.54
32039;BMP280;18549;42.286;22.688;2022-08-21T00:45:51;95085.00;;;24.54
32039;BMP280;18549;42.286;22.688;2022-08-21T00:48:20;95100.59;;;24.52
32039;BMP280;18549;42.286;22.688;2022-08-21T00:50:52;95101.19;;;24.47
32039;BMP280;18549;42.286;22.688;2022-08-21T00:53:23;95104.66;;;24.46
32039;BMP280;18549;42.286;22.688;2022-08-21T00:55:51;95099.81;;;24.45
32039;BMP280;18549;42.286;22.688;2022-08-21T00:58:19;95096.69;;;24.43
32039;BMP280;18549;42.286;22.688;2022-08-21T01:00:48;95098.03;;;24.39
32039;BMP280;18549;42.286;22.688;2022-08-21T01:03:18;95091.41;;;24.38
32039;BMP280;18549;42.286;22.688;2022-08-21T01:05:46;95084.19;;;24.35
32039;BMP280;18549;42.286;22.688;2022-08-21T01:08:14;95089.25;;;24.35
32039;BMP280;18549;42.286;22.688;2022-08-21T01:10:44;95086.13;;;24.33
32039;BMP280;18549;42.286;22.688;2022-08-21T01:13:14;95084.75;;;24.30
32039;BMP280;18549;42.286;22.688;2022-08-21T01:15:45;95077.97;;;24.31
32039;BMP280;18549;42.286;22.688;2022-08-21T01:18:14;95077.97;;;24.31
32039;BMP280;18549;42.286;22.688;2022-08-21T01:20:44;95079.91;;;24.29
32039;BMP280;18549;42.286;22.688;2022-08-21T01:23:13;95074.84;;;24.29
32039;BMP280;18549;42.286;22.688;2022-08-21T01:25:41;95074.03;;;24.28
32039;BMP280;18549;42.286;22.688;2022-08-21T01:28:13;95076.78;;;24.27
32039;BMP280;18549;42.286;22.688;2022-08-21T01:30:43;95086.13;;;24.26
32039;BMP280;18549;42.286;22.688;2022-08-21T01:33:11;95077.97;;;24.31
32039;BMP280;18549;42.286;22.688;2022-08-21T01:35:38;95068.97;;;24.35
32039;BMP280;18549;42.286;22.688;2022-08-21T01:38:06;95068.41;;;24.33
32039;BMP280;18549;42.286;22.688;2022-08-21T01:40:36;95060.22;;;24.31
32039;BMP280;18549;42.286;22.688;2022-08-21T01:43:03;95060.22;;;24.31
32039;BMP280;18549;42.286;22.688;2022-08-21T01:45:31;95061.19;;;24.30
32039;BMP280;18549;42.286;22.688;2022-08-21T01:47:58;95064.50;;;24.24
32039;BMP280;18549;42.286;22.688;2022-08-21T01:50:26;95069.87;;;24.15
32039;BMP280;18549;42.286;22.688;2022-08-21T01:52:53;95074.75;;;24.10
32039;BMP280;18549;42.286;22.688;2022-08-21T01:55:21;95068.13;;;24.09
32039;BMP280;18549;42.286;22.688;2022-08-21T01:57:50;95075.53;;;24.10
32039;BMP280;18549;42.286;22.688;2022-08-21T02:00:20;95075.53;;;24.10
32039;BMP280;18549;42.286;22.688;2022-08-21T02:02:50;95072.03;;;24.11
32039;BMP280;18549;42.286;22.688;2022-08-21T02:05:18;95064.63;;;24.10
32039;BMP280;18549;42.286;22.688;2022-08-21T02:07:49;95077.47;;;24.08
32039;BMP280;18549;42.286;22.688;2022-08-21T02:10:19;95073.97;;;24.09
32039;BMP280;18549;42.286;22.688;2022-08-21T02:12:47;95065.41;;;24.10
32039;BMP280;18549;42.286;22.688;2022-08-21T02:15:17;95063.44;;;24.12
32039;BMP280;18549;42.286;22.688;2022-08-21T02:17:46;95058.38;;;24.12
32039;BMP280;18549;42.286;22.688;2022-08-21T02:20:17;95066.22;;;24.17
32039;BMP280;18549;42.286;22.688;2022-08-21T02:22:44;95069.91;;;24.21
32039;BMP280;18549;42.286;22.688;2022-08-21T02:25:12;95063.91;;;24.22
32039;BMP280;18549;42.286;22.688;2022-08-21T02:27:40;95064.50;;;24.24
32039;BMP280;18549;42.286;22.688;2022-08-21T02:30:12;95065.03;;;24.13
32039;BMP280;18549;42.286;22.688;2022-08-21T02:32:41;95059.19;;;24.13
32039;BMP280;18549;42.286;22.688;2022-08-21T02:35:10;95063.09;;;24.15
32039;BMP280;18549;42.286;22.688;2022-08-21T02:37:44;95068.50;;;24.12
32039;BMP280;18549;42.286;22.688;2022-08-21T02:40:13;95054.69;;;24.15
32039;BMP280;18549;42.286;22.688;2022-08-21T02:42:41;95049.44;;;24.16
32039;BMP280;18549;42.286;22.688;2022-08-21T02:45:09;95049.06;;;24.19
32039;BMP280;18549;42.286;22.688;2022-08-21T02:47:37;95045.75;;;24.18
32039;BMP280;18549;42.286;22.688;2022-08-21T02:50:07;95055.66;;;24.14
32039;BMP280;18549;42.286;22.688;2022-08-21T02:52:34;95045.16;;;24.10
32039;BMP280;18549;42.286;22.688;2022-08-21T02:55:03;95047.47;;;24.12
32039;BMP280;18549;42.286;22.688;2022-08-21T02:57:31;95043.59;;;24.09
32039;BMP280;18549;42.286;22.688;2022-08-21T02:59:59;95048.81;;;24.08
32039;BMP280;18549;42.286;22.688;2022-08-21T03:02:26;95042.81;;;24.09
32039;BMP280;18549;42.286;22.688;2022-08-21T03:04:54;95036.97;;;24.08
32039;BMP280;18549;42.286;22.688;2022-08-21T03:07:23;95045.53;;;24.07
32039;BMP280;18549;42.286;22.688;2022-08-21T03:09:50;95049.25;;;24.11
32039;BMP280;18549;42.286;22.688;2022-08-21T03:12:18;95057.22;;;24.15
32039;BMP280;18549;42.286;22.688;2022-08-21T03:14:48;95056.44;;;24.14
32039;BMP280;18549;42.286;22.688;2022-08-21T03:17:16;95057.59;;;24.12
32039;BMP280;18549;42.286;22.688;2022-08-21T03:19:43;95060.91;;;24.12
32039;BMP280;18549;42.286;22.688;2022-08-21T03:22:11;95052.75;;;24.10
32039;BMP280;18549;42.286;22.688;2022-08-21T03:24:40;95052.16;;;24.08
32039;BMP280;18549;42.286;22.688;2022-08-21T03:27:07;95051.34;;;24.08
32039;BMP280;18549;42.286;22.688;2022-08-21T03:29:35;95053.72;;;24.09
32039;BMP280;18549;42.286;22.688;2022-08-21T03:32:02;95052.50;;;23.92
32039;BMP280;18549;42.286;22.688;2022-08-21T03:34:30;95058.31;;;23.86
32039;BMP280;18549;42.286;22.688;2022-08-21T03:36:57;95057.91;;;23.83
32039;BMP280;18549;42.286;22.688;2022-08-21T03:39:25;95059.88;;;23.87
32039;BMP280;18549;42.286;22.688;2022-08-21T03:41:54;95063.38;;;23.86
32039;BMP280;18549;42.286;22.688;2022-08-21T03:44:21;95061.81;;;23.85
32039;BMP280;18549;42.286;22.688;2022-08-21T03:46:49;95061.44;;;23.88
32039;BMP280;18549;42.286;22.688;2022-08-21T03:49:17;95074.09;;;23.88
32039;BMP280;18549;42.286;22.688;2022-08-21T03:51:44;95077.59;;;23.87
32039;BMP280;18549;42.286;22.688;2022-08-21T03:54:12;95076.81;;;23.87
32039;BMP280;18549;42.286;22.688;2022-08-21T03:56:39;95081.69;;;23.88
32039;BMP280;18549;42.286;22.688;2022-08-21T03:59:08;95079.16;;;23.88
32039;BMP280;18549;42.286;22.688;2022-08-21T04:01:36;95084.22;;;23.88
32039;BMP280;18549;42.286;22.688;2022-08-21T04:04:05;95090.47;;;23.92
32039;BMP280;18549;42.286;22.688;2022-08-21T04:06:35;95091.63;;;23.90
32039;BMP280;18549;42.286;22.688;2022-08-21T04:09:02;95089.44;;;23.87
32039;BMP280;18549;42.286;22.688;2022-08-21T04:11:30;95098.19;;;23.84
32039;BMP280;18549;42.286;22.688;2022-08-21T04:13:57;95098.00;;;23.80
32039;BMP280;18549;42.286;22.688;2022-08-21T04:16:26;95096.03;;;23.75
32039;BMP280;18549;42.286;22.688;2022-08-21T04:18:55;95094.47;;;23.74
32039;BMP280;18549;42.286;22.688;2022-08-21T04:21:23;95095.25;;;23.75
32039;BMP280;18549;42.286;22.688;2022-08-21T04:23:54;95094.28;;;23.76
32039;BMP280;18549;42.286;22.688;2022-08-21T04:26:21;95096.78;;;23.76
32039;BMP280;18549;42.286;22.688;2022-08-21T04:28:49;95104.22;;;23.77
32039;BMP280;18549;42.286;22.688;2022-08-21T04:31:16;95102.84;;;23.75
32039;BMP280;18549;42.286;22.688;2022-08-21T04:33:45;95108.06;;;23.73
32039;BMP280;18549;42.286;22.688;2022-08-21T04:36:13;95106.91;;;23.76
32039;BMP280;18549;42.286;22.688;2022-08-21T04:38:41;95106.97;;;23.82
32039;BMP280;18549;42.286;22.688;2022-08-21T04:41:09;95112.22;;;23.81
32039;BMP280;18549;42.286;22.688;2022-08-21T04:43:38;95107.91;;;23.75
32039;BMP280;18549;42.286;22.688;2022-08-21T04:46:06;95108.06;;;23.73
32039;BMP280;18549;42.286;22.688;2022-08-21T04:48:33;95103.00;;;23.73
32039;BMP280;18549;42.286;22.688;2022-08-21T04:51:06;95111.19;;;23.75
32039;BMP280;18549;42.286;22.688;2022-08-21T04:53:36;95121.16;;;23.77
32039;BMP280;18549;42.286;22.688;2022-08-21T04:56:07;95115.06;;;23.71
32039;BMP280;18549;42.286;22.688;2022-08-21T04:58:36;95116.00;;;23.64
32039;BMP280;18549;42.286;22.688;2022-08-21T05:01:09;95116.88;;;23.50
32039;BMP280;18549;42.286;22.688;2022-08-21T05:03:37;95111.00;;;23.43
32039;BMP280;18549;42.286;22.688;2022-08-21T05:06:10;95117.75;;;23.36
32039;BMP280;18549;42.286;22.688;2022-08-21T05:08:40;95120.72;;;23.40
32039;BMP280;18549;42.286;22.688;2022-08-21T05:11:09;95120.88;;;23.38
32039;BMP280;18549;42.286;22.688;2022-08-21T05:13:37;95123.03;;;23.41
32039;BMP280;18549;42.286;22.688;2022-08-21T05:16:06;95126.12;;;23.37
32039;BMP280;18549;42.286;22.688;2022-08-21T05:18:33;95116.37;;;23.34
32039;BMP280;18549;42.286;22.688;2022-08-21T05:21:02;95108.75;;;23.27
32039;BMP280;18549;42.286;22.688;2022-08-21T05:23:31;95115.56;;;23.27
32039;BMP280;18549;42.286;22.688;2022-08-21T05:25:59;95126.81;;;23.24
32039;BMP280;18549;42.286;22.688;2022-08-21T05:28:26;95131.34;;;23.29
32039;BMP280;18549;42.286;22.688;2022-08-21T05:30:54;95122.22;;;23.34
32039;BMP280;18549;42.286;22.688;2022-08-21T05:33:22;95127.28;;;23.34
32039;BMP280;18549;42.286;22.688;2022-08-21T05:35:50;95121.44;;;23.34
32039;BMP280;18549;42.286;22.688;2022-08-21T05:38:17;95120.84;;;23.32
32039;BMP280;18549;42.286;22.688;2022-08-21T05:40:46;95127.88;;;23.36
32039;BMP280;18549;42.286;22.688;2022-08-21T05:43:14;95126.94;;;23.37
32039;BMP280;18549;42.286;22.688;2022-08-21T05:45:42;95107.87;;;23.41
32039;BMP280;18549;42.286;22.688;2022-08-21T05:48:12;95110.63;;;23.46
32039;BMP280;18549;42.286;22.688;2022-08-21T05:50:39;95108.47;;;23.43
32039;BMP280;18549;42.286;22.688;2022-08-21T05:53:07;95112.19;;;23.47
32039;BMP280;18549;42.286;22.688;2022-08-21T05:55:35;95101.69;;;23.50
32039;BMP280;18549;42.286;22.688;2022-08-21T05:58:05;95104.12;;;23.58
32039;BMP280;18549;42.286;22.688;2022-08-21T06:00:33;95109.03;;;23.66
32039;BMP280;18549;42.286;22.688;2022-08-21T06:03:00;95104.00;;;23.72
32039;BMP280;18549;42.286;22.688;2022-08-21T06:05:28;95106.97;;;23.82
32039;BMP280;18549;42.286;22.688;2022-08-21T06:07:56;95101.94;;;23.88
32039;BMP280;18549;42.286;22.688;2022-08-21T06:10:24;95116.72;;;23.91
32039;BMP280;18549;42.286;22.688;2022-08-21T06:12:53;95108.97;;;23.93
32039;BMP280;18549;42.286;22.688;2022-08-21T06:15:23;95103.91;;;23.93
32039;BMP280;18549;42.286;22.688;2022-08-21T06:17:52;95103.50;;;23.96
32039;BMP280;18549;42.286;22.688;2022-08-21T06:20:20;95097.88;;;24.00
32039;BMP280;18549;42.286;22.688;2022-08-21T06:22:48;95104.88;;;23.98
32039;BMP280;18549;42.286;22.688;2022-08-21T06:25:15;95098.66;;;24.01
32039;BMP280;18549;42.286;22.688;2022-08-21T06:27:44;95100.63;;;24.05
32039;BMP280;18549;42.286;22.688;2022-08-21T06:30:13;95097.53;;;24.10
32039;BMP280;18549;42.286;22.688;2022-08-21T06:32:43;95100.84;;;24.10
32039;BMP280;18549;42.286;22.688;2022-08-21T06:35:11;95095.38;;;24.07
32039;BMP280;18549;42.286;22.688;2022-08-21T06:37:39;95099.09;;;24.11
32039;BMP280;18549;42.286;22.688;2022-08-21T06:40:08;95092.28;;;24.11
32039;BMP280;18549;42.286;22.688;2022-08-21T06:42:36;95089.34;;;24.14
32039;BMP280;18549;42.286;22.688;2022-08-21T06:45:04;95085.28;;;24.13
32039;BMP280;18549;42.286;22.688;2022-08-21T06:47:32;95089.56;;;24.19
32039;BMP280;18549;42.286;22.688;2022-08-21T06:50:01;95093.69;;;24.20
32039;BMP280;18549;42.286;22.688;2022-08-21T06:52:30;95097.03;;;24.27
32039;BMP280;18549;42.286;22.688;2022-08-21T06:54:57;95084.75;;;24.24
32039;BMP280;18549;42.286;22.688;2022-08-21T06:57:25;95091.97;;;24.27
32039;BMP280;18549;42.286;22.688;2022-08-21T06:59:52;95091.97;;;24.27
32039;BMP280;18549;42.286;22.688;2022-08-21T07:02:19;95096.25;;;24.26
32039;BMP280;18549;42.286;22.688;2022-08-21T07:04:47;95096.59;;;24.17
32039;BMP280;18549;42.286;22.688;2022-08-21T07:07:16;95076.69;;;24.08
32039;BMP280;18549;42.286;22.688;2022-08-21T07:09:44;95074.50;;;23.98
32039;BMP280;18549;42.286;22.688;2022-08-21T07:12:12;95068.50;;;24.06
32039;BMP280;18549;42.286;22.688;2022-08-21T07:14:40;95075.94;;;24.20
32039;BMP280;18549;42.286;22.688;2022-08-21T07:17:09;95078.31;;;24.28
32039;BMP280;18549;42.286;22.688;2022-08-21T07:19:36;95075.19;;;24.19
32039;BMP280;18549;42.286;22.688;2022-08-21T07:22:04;95067.03;;;24.24
32039;BMP280;18549;42.286;22.688;2022-08-21T07:24:33;95069.19;;;24.27
32039;BMP280;18549;42.286;22.688;2022-08-21T07:27:01;95070.75;;;24.34
32039;BMP280;18549;42.286;22.688;2022-08-21T07:29:29;95066.09;;;24.38
32039;BMP280;18549;42.286;22.688;2022-08-21T07:31:56;95065.12;;;24.45
32039;BMP280;18549;42.286;22.688;2022-08-21T07:34:24;95058.12;;;24.53
32039;BMP280;18549;42.286;22.688;2022-08-21T07:36:51;95049.94;;;24.52
32039;BMP280;18549;42.286;22.688;2022-08-21T07:39:19;95055.97;;;24.51
32039;BMP280;18549;42.286;22.688;2022-08-21T07:41:47;95048.19;;;24.52
32039;BMP280;18549;42.286;22.688;2022-08-21T07:44:15;95050.31;;;24.61
32039;BMP280;18549;42.286;22.688;2022-08-21T07:46:42;95048.59;;;24.75
32039;BMP280;18549;42.286;22.688;2022-08-21T07:49:10;95055.59;;;24.79
32039;BMP280;18549;42.286;22.688;2022-08-21T07:51:38;95055.37;;;24.87
32039;BMP280;18549;42.286;22.688;2022-08-21T07:54:05;95059.12;;;24.91
32039;BMP280;18549;42.286;22.688;2022-08-21T07:56:34;95066.16;;;24.95
32039;BMP280;18549;42.286;22.688;2022-08-21T07:59:03;95055.44;;;25.00
32039;BMP280;18549;42.286;22.688;2022-08-21T08:01:30;95055.63;;;24.98
32039;BMP280;18549;42.286;22.688;2022-08-21T08:03:58;95048.00;;;24.85
32039;BMP280;18549;42.286;22.688;2022-08-21T08:06:27;95044.47;;;24.80
32039;BMP280;18549;42.286;22.688;2022-08-21T08:08:56;95051.50;;;24.78
32039;BMP280;18549;42.286;22.688;2022-08-21T08:11:23;95052.69;;;24.88
32039;BMP280;18549;42.286;22.688;2022-08-21T08:13:51;95051.12;;;25.00
32039;BMP280;18549;42.286;22.688;2022-08-21T08:16:20;95047.00;;;25.18
32039;BMP280;18549;42.286;22.688;2022-08-21T08:18:48;95050.50;;;25.24
32039;BMP280;18549;42.286;22.688;2022-08-21T08:21:17;95041.53;;;25.28
32039;BMP280;18549;42.286;22.688;2022-08-21T08:23:47;95039.75;;;25.41
32039;BMP280;18549;42.286;22.688;2022-08-21T08:26:14;95034.84;;;25.40
32039;BMP280;18549;42.286;22.688;2022-08-21T08:28:43;95038.97;;;25.47
32039;BMP280;18549;42.286;22.688;2022-08-21T08:31:12;95032.69;;;25.50
32039;BMP280;18549;42.286;22.688;2022-08-21T08:33:42;95033.31;;;25.39
32039;BMP280;18549;42.286;22.688;2022-08-21T08:36:14;95032.31;;;25.46
32039;BMP280;18549;42.286;22.688;2022-08-21T08:38:42;95026.81;;;25.49
32039;BMP280;18549;42.286;22.688;2022-08-21T08:41:12;95022.19;;;25.52
32039;BMP280;18549;42.286;22.688;2022-08-21T08:43:44;95019.22;;;25.55
32039;BMP280;18549;42.286;22.688;2022-08-21T08:46:18;95015.06;;;25.67
32039;BMP280;18549;42.286;22.688;2022-08-21T08:48:51;95016.81;;;25.73
32039;BMP280;18549;42.286;22.688;2022-08-21T08:51:24;95010.06;;;25.61
32039;BMP280;18549;42.286;22.688;2022-08-21T08:53:55;95012.78;;;25.59
32039;BMP280;18549;42.286;22.688;2022-08-21T08:56:29;95015.50;;;25.58
32039;BMP280;18549;42.286;22.688;2022-08-21T08:59:07;95014.94;;;25.56
32039;BMP280;18549;42.286;22.688;2022-08-21T09:01:35;95009.28;;;25.54
32039;BMP280;18549;42.286;22.688;2022-08-21T09:04:04;95000.69;;;25.55
32039;BMP280;18549;42.286;22.688;2022-08-21T09:06:42;95006.69;;;25.67
32039;BMP280;18549;42.286;22.688;2022-08-21T09:09:25;95001.34;;;25.81
32039;BMP280;18549;42.286;22.688;2022-08-21T09:12:00;94999.94;;;25.91
32039;BMP280;18549;42.286;22.688;2022-08-21T09:14:41;94987.97;;;26.05
32039;BMP280;18549;42.286;22.688;2022-08-21T09:17:22;94976.19;;;26.10
32039;BMP280;18549;42.286;22.688;2022-08-21T09:20:08;94976.00;;;26.18
32039;BMP280;18549;42.286;22.688;2022-08-21T09:22:46;94985.56;;;26.16
32039;BMP280;18549;42.286;22.688;2022-08-21T09:25:21;94981.22;;;26.23
32039;BMP280;18549;42.286;22.688;2022-08-21T09:27:49;94983.94;;;26.28
32039;BMP280;18549;42.286;22.688;2022-08-21T09:30:19;94981.19;;;26.29
32039;BMP280;18549;42.286;22.688;2022-08-21T09:32:48;94976.16;;;26.23
32039;BMP280;18549;42.286;22.688;2022-08-21T09:35:19;94979.31;;;26.19
32039;BMP280;18549;42.286;22.688;2022-08-21T09:40:32;94969.34;;;26.11
32039;BMP280;18549;42.286;22.688;2022-08-21T09:43:03;94960.34;;;26.15
32039;BMP280;18549;42.286;22.688;2022-08-21T09:45:33;94953.13;;;26.12
32039;BMP280;18549;42.286;22.688;2022-08-21T09:48:10;94956.28;;;26.07
32039;BMP280;18549;42.286;22.688;2022-08-21T09:50:41;94957.44;;;26.11
32039;BMP280;18549;42.286;22.688;2022-08-21T09:53:19;94956.03;;;26.15
32039;BMP280;18549;42.286;22.688;2022-08-21T09:55:52;94945.25;;;26.26
32039;BMP280;18549;42.286;22.688;2022-08-21T09:58:39;94949.09;;;26.35
32039;BMP280;18549;42.286;22.688;2022-08-21T10:01:13;94945.53;;;26.36
32039;BMP280;18549;42.286;22.688;2022-08-21T10:03:42;94941.09;;;26.31
32039;BMP280;18549;42.286;22.688;2022-08-21T10:06:22;94942.84;;;26.31
32039;BMP280;18549;42.286;22.688;2022-08-21T10:09:02;94940.53;;;26.29
32039;BMP280;18549;42.286;22.688;2022-08-21T10:11:40;94939.53;;;26.30
32039;BMP280;18549;42.286;22.688;2022-08-21T10:14:17;94934.66;;;26.29
32039;BMP280;18549;42.286;22.688;2022-08-21T10:16:57;94932.91;;;26.29
32039;BMP280;18549;42.286;22.688;2022-08-21T10:19:35;94929.66;;;26.22
32039;BMP280;18549;42.286;22.688;2022-08-21T10:22:16;94924.19;;;26.13
32039;BMP280;18549;42.286;22.688;2022-08-21T10:24:53;94936.56;;;26.09
32039;BMP280;18549;42.286;22.688;2022-08-21T10:27:32;94938.09;;;26.10
32039;BMP280;18549;42.286;22.688;2022-08-21T10:30:05;94938.50;;;26.07
32039;BMP280;18549;42.286;22.688;2022-08-21T10:32:55;94934.63;;;26.05
32039;BMP280;18549;42.286;22.688;2022-08-21T10:35:27;94925.09;;;26.00
32039;BMP280;18549;42.286;22.688;2022-08-21T10:41:14;94915.75;;;25.94
32039;BMP280;18549;42.286;22.688;2022-08-21T10:43:52;94917.50;;;25.94
32039;BMP280;18549;42.286;22.688;2022-08-21T10:46:33;94919.28;;;25.93
32039;BMP280;18549;42.286;22.688;2022-08-21T10:49:13;94921.25;;;25.91
32039;BMP280;18549;42.286;22.688;2022-08-21T10:51:53;94910.31;;;25.91
32039;BMP280;18549;42.286;22.688;2022-08-21T10:54:31;94910.88;;;25.93
32039;BMP280;18549;42.286;22.688;2022-08-21T10:57:05;94905.00;;;25.92
32039;BMP280;18549;42.286;22.688;2022-08-21T10:59:42;94900.13;;;25.97
32039;BMP280;18549;42.286;22.688;2022-08-21T11:02:17;94901.66;;;25.98
32039;BMP280;18549;42.286;22.688;2022-08-21T11:04:52;94896.59;;;25.98
32039;BMP280;18549;42.286;22.688;2022-08-21T11:07:26;94894.63;;;26.00
32039;BMP280;18549;42.286;22.688;2022-08-21T11:09:56;94889.97;;;25.97
32039;BMP280;18549;42.286;22.688;2022-08-21T11:12:31;94882.34;;;25.97
32039;BMP280;18549;42.286;22.688;2022-08-21T11:15:11;94893.41;;;26.03
32039;BMP280;18549;42.286;22.688;2022-08-21T11:17:54;94880.47;;;26.11
32039;BMP280;18549;42.286;22.688;2022-08-21T11:20:30;94879.66;;;26.17
32039;BMP280;18549;42.286;22.688;2022-08-21T11:23:04;94877.84;;;26.23
32039;BMP280;18549;42.286;22.688;2022-08-21T11:25:36;94880.34;;;26.30
32039;BMP280;18549;42.286;22.688;2022-08-21T11:28:10;94868.94;;;26.39
32039;BMP280;18549;42.286;22.688;2022-08-21T11:30:45;94867.97;;;26.57
32039;BMP280;18549;42.286;22.688;2022-08-21T11:33:27;94864.84;;;26.80
32039;BMP280;18549;42.286;22.688;2022-08-21T11:36:06;94856.53;;;27.02
32039;BMP280;18549;42.286;22.688;2022-08-21T11:38:41;94861.50;;;27.15
32039;BMP280;18549;42.286;22.688;2022-08-21T11:41:21;94857.22;;;27.26
32039;BMP280;18549;42.286;22.688;2022-08-21T11:43:56;94852.56;;;27.41
32039;BMP280;18549;42.286;22.688;2022-08-21T11:46:31;94855.03;;;27.59
32039;BMP280;18549;42.286;22.688;2022-08-21T11:49:10;94859.59;;;27.68
32039;BMP280;18549;42.286;22.688;2022-08-21T11:51:45;94850.22;;;27.69
32039;BMP280;18549;42.286;22.688;2022-08-21T11:54:20;94855.72;;;27.66
32039;BMP280;18549;42.286;22.688;2022-08-21T11:56:55;94852.75;;;27.57
32039;BMP280;18549;42.286;22.688;2022-08-21T11:59:36;94853.69;;;27.45
32039;BMP280;18549;42.286;22.688;2022-08-21T12:02:08;94858.75;;;27.27
32039;BMP280;18549;42.286;22.688;2022-08-21T12:04:44;94854.00;;;27.19
32039;BMP280;18549;42.286;22.688;2022-08-21T12:07:14;94852.59;;;27.06
32039;BMP280;18549;42.286;22.688;2022-08-21T12:09:53;94854.00;;;27.02
32039;BMP280;18549;42.286;22.688;2022-08-21T12:12:27;94857.97;;;26.98
32039;BMP280;18549;42.286;22.688;2022-08-21T12:15:14;94860.94;;;26.95
32039;BMP280;18549;42.286;22.688;2022-08-21T12:17:54;94859.81;;;26.91
32039;BMP280;18549;42.286;22.688;2022-08-21T12:20:33;94854.94;;;26.89
32039;BMP280;18549;42.286;22.688;2022-08-21T12:23:12;94852.59;;;26.88
32039;BMP280;18549;42.286;22.688;2022-08-21T12:25:43;94835.66;;;26.82
32039;BMP280;18549;42.286;22.688;2022-08-21T12:28:14;94832.97;;;26.77
32039;BMP280;18549;42.286;22.688;2022-08-21T12:30:45;94834.13;;;26.75
32039;BMP280;18549;42.286;22.688;2022-08-21T12:33:23;94833.03;;;26.71
32039;BMP280;18549;42.286;22.688;2022-08-21T12:36:02;94828.72;;;26.71
32039;BMP280;18549;42.286;22.688;2022-08-21T12:38:39;94834.53;;;26.78
32039;BMP280;18549;42.286;22.688;2022-08-21T12:41:16;94836.06;;;26.97
32039;BMP280;18549;42.286;22.688;2022-08-21T12:43:48;94849.53;;;27.15
32039;BMP280;18549;42.286;22.688;2022-08-21T12:46:27;94857.47;;;27.36
32039;BMP280;18549;42.286;22.688;2022-08-21T12:48:58;94861.09;;;27.47
32039;BMP280;18549;42.286;22.688;2022-08-21T12:51:31;94861.31;;;27.45
32039;BMP280;18549;42.286;22.688;2022-08-21T12:54:01;94862.75;;;27.41
32039;BMP280;18549;42.286;22.688;2022-08-21T12:56:32;94856.66;;;27.42
32039;BMP280;18549;42.286;22.688;2022-08-21T12:59:03;94863.13;;;27.56
32039;BMP280;18549;42.286;22.688;2022-08-21T13:01:35;94866.31;;;27.52
32039;BMP280;18549;42.286;22.688;2022-08-21T13:04:08;94862.88;;;27.46
32039;BMP280;18549;42.286;22.688;2022-08-21T13:06:41;94868.41;;;27.25
32039;BMP280;18549;42.286;22.688;2022-08-21T13:09:11;94868.12;;;27.16
32039;BMP280;18549;42.286;22.688;2022-08-21T13:11:41;94863.91;;;27.10
32039;BMP280;18549;42.286;22.688;2022-08-21T13:14:16;94860.38;;;26.93
32039;BMP280;18549;42.286;22.688;2022-08-21T13:16:47;94861.44;;;26.86
32039;BMP280;18549;42.286;22.688;2022-08-21T13:19:17;94861.22;;;26.87
32039;BMP280;18549;42.286;22.688;2022-08-21T13:21:45;94856.56;;;26.84
32039;BMP280;18549;42.286;22.688;2022-08-21T13:24:16;94855.69;;;26.72
32039;BMP280;18549;42.286;22.688;2022-08-21T13:26:44;94853.94;;;26.73
32039;BMP280;18549;42.286;22.688;2022-08-21T13:29:14;94861.91;;;26.76
32039;BMP280;18549;42.286;22.688;2022-08-21T13:31:51;94868.25;;;26.67
32039;BMP280;18549;42.286;22.688;2022-08-21T13:34:19;94857.75;;;26.64
32039;BMP280;18549;42.286;22.688;2022-08-21T13:39:17;94847.97;;;26.61
32039;BMP280;18549;42.286;22.688;2022-08-21T13:41:49;94849.03;;;26.53
32039;BMP280;18549;42.286;22.688;2022-08-21T13:44:21;94849.44;;;26.33
32039;BMP280;18549;42.286;22.688;2022-08-21T13:46:54;94844.88;;;26.17
32039;BMP280;18549;42.286;22.688;2022-08-21T13:49:31;94839.09;;;26.04
32039;BMP280;18549;42.286;22.688;2022-08-21T13:52:00;94828.59;;;26.00
32039;BMP280;18549;42.286;22.688;2022-08-21T13:54:34;94835.34;;;25.88
32039;BMP280;18549;42.286;22.688;2022-08-21T13:57:03;94837.50;;;25.85
32039;BMP280;18549;42.286;22.688;2022-08-21T13:59:34;94837.88;;;25.88
32039;BMP280;18549;42.286;22.688;2022-08-21T14:02:12;94831.75;;;25.96
32039;BMP280;18549;42.286;22.688;2022-08-21T14:04:44;94825.34;;;25.93
32039;BMP280;18549;42.286;22.688;2022-08-21T14:07:18;94832.34;;;25.98
32039;BMP280;18549;42.286;22.688;2022-08-21T14:09:47;94832.94;;;25.93
32039;BMP280;18549;42.286;22.688;2022-08-21T14:12:17;94840.00;;;25.91
32039;BMP280;18549;42.286;22.688;2022-08-21T14:14:46;94830.66;;;25.85
32039;BMP280;18549;42.286;22.688;2022-08-21T14:17:28;94829.56;;;25.75
32039;BMP280;18549;42.286;22.688;2022-08-21T14:19:57;94835.84;;;25.73
32039;BMP280;18549;42.286;22.688;2022-08-21T14:22:31;94844.41;;;25.72
32039;BMP280;18549;42.286;22.688;2022-08-21T14:25:00;94834.81;;;25.80